createdAt,value
2022-11-14T00:01:20.234Z,3.15
2022-11-14T00:04:07.273Z,2.97
2022-11-14T00:06:55.978Z,3.33
2022-11-14T00:09:43.630Z,2.50
2022-11-14T00:12:30.885Z,2.97
2022-11-14T00:15:18.147Z,2.80
2022-11-14T00:18:05.717Z,2.90
2022-11-14T00:20:53.295Z,2.45
2022-11-14T00:23:41.859Z,2.33
2022-11-14T00:26:29.035Z,2.95
2022-11-14T00:29:17.136Z,2.72
2022-11-14T00:32:04.192Z,2.53
2022-11-14T00:34:51.438Z,2.80
2022-11-14T00:37:38.718Z,2.35
2022-11-14T00:40:27.426Z,2.55
2022-11-14T00:43:15.128Z,2.42
2022-11-14T00:46:02.400Z,2.50
2022-11-14T00:48:49.732Z,2.30
2022-11-14T00:51:37.209Z,2.40
2022-11-14T00:54:24.389Z,2.60
2022-11-14T00:57:13.018Z,2.22
2022-11-14T01:00:00.461Z,2.08
2022-11-14T01:02:47.800Z,2.45
2022-11-14T01:05:34.948Z,2.03
2022-11-14T01:08:22.164Z,2.30
2022-11-14T01:11:10.812Z,2.40
2022-11-14T01:14:01.540Z,2.25
2022-11-14T01:16:50.919Z,2.67
2022-11-14T01:19:40.296Z,2.55
2022-11-14T01:22:30.052Z,2.60
2022-11-14T01:25:19.437Z,2.28
2022-11-14T01:28:09.497Z,2.15
2022-11-14T01:31:09.882Z,2.40
2022-11-14T01:33:59.197Z,2.50
2022-11-14T01:36:48.368Z,2.55
2022-11-14T01:39:37.752Z,3.05
2022-11-14T01:42:27.660Z,3.00
2022-11-14T01:45:52.195Z,2.75
2022-11-14T01:48:45.852Z,2.50
2022-11-14T01:51:36.670Z,2.70
2022-11-14T01:54:29.557Z,2.83
2022-11-14T01:57:21.329Z,2.85
2022-11-14T02:00:10.847Z,3.05
2022-11-14T02:02:59.835Z,2.70
2022-11-14T02:05:51.000Z,3.25
2022-11-14T02:08:39.301Z,2.67
2022-11-14T02:11:31.848Z,2.63
2022-11-14T02:14:21.359Z,2.85
2022-11-14T02:17:40.880Z,3.03
2022-11-14T02:20:22.122Z,2.70
2022-11-14T02:23:09.064Z,2.92
2022-11-14T02:25:56.491Z,3.05
2022-11-14T02:28:43.752Z,2.92
2022-11-14T02:31:30.891Z,2.60
2022-11-14T02:34:20.338Z,3.15
2022-11-14T02:37:09.034Z,3.10
2022-11-14T02:39:56.063Z,3.20
2022-11-14T02:42:43.366Z,3.28
2022-11-14T02:45:30.679Z,3.45
2022-11-14T02:48:17.976Z,3.60
2022-11-14T02:51:05.195Z,3.33
2022-11-14T02:53:53.827Z,3.20
2022-11-14T02:56:41.070Z,3.53
2022-11-14T02:59:28.316Z,3.38
2022-11-14T03:02:15.567Z,3.65
2022-11-14T03:05:02.842Z,3.72
2022-11-14T03:07:53.637Z,3.65
2022-11-14T03:10:42.259Z,3.60
2022-11-14T03:13:30.337Z,3.78
2022-11-14T03:16:17.223Z,4.03
2022-11-14T03:19:04.653Z,3.80
2022-11-14T03:21:52.254Z,4.30
2022-11-14T03:24:39.409Z,3.63
2022-11-14T03:27:28.114Z,3.42
2022-11-14T03:30:15.833Z,3.72
2022-11-14T03:33:02.881Z,4.18
2022-11-14T03:35:50.797Z,3.40
2022-11-14T03:38:38.082Z,3.95
2022-11-14T03:41:25.585Z,4.00
2022-11-14T03:44:13.935Z,3.50
2022-11-14T03:47:00.849Z,3.70
2022-11-14T03:49:48.206Z,3.33
2022-11-14T03:52:35.612Z,4.20
2022-11-14T03:55:22.866Z,3.40
2022-11-14T03:58:10.248Z,4.25
2022-11-14T04:00:59.100Z,4.28
2022-11-14T04:03:46.584Z,4.13
2022-11-14T04:06:33.821Z,4.10
2022-11-14T04:09:21.166Z,3.83
2022-11-14T04:12:14.315Z,3.90
2022-11-14T04:15:02.860Z,4.15
2022-11-14T04:17:52.577Z,4.30
2022-11-14T04:20:39.801Z,4.15
2022-11-14T04:23:26.945Z,4.57
2022-11-14T04:26:14.338Z,4.65
2022-11-14T04:29:01.670Z,5.28
2022-11-14T04:31:48.812Z,4.50
2022-11-14T04:34:37.435Z,4.85
2022-11-14T04:37:24.471Z,5.05
2022-11-14T04:40:12.157Z,4.38
2022-11-14T04:42:59.148Z,4.95
2022-11-14T04:45:46.345Z,5.63
2022-11-14T04:48:33.773Z,5.90
2022-11-14T04:51:22.324Z,5.05
2022-11-14T04:54:09.427Z,5.70
2022-11-14T04:56:56.825Z,6.15
2022-11-14T04:59:44.166Z,5.63
2022-11-14T05:02:32.050Z,5.88
2022-11-14T05:05:19.395Z,6.20
2022-11-14T05:08:08.196Z,5.90
2022-11-14T05:10:55.268Z,5.82
2022-11-14T05:13:42.493Z,5.50
2022-11-14T05:16:29.772Z,5.93
2022-11-14T05:19:17.103Z,6.03
2022-11-14T05:22:04.396Z,5.88
2022-11-14T05:24:53.047Z,5.78
2022-11-14T05:27:40.289Z,5.35
2022-11-14T05:30:27.866Z,6.60
2022-11-14T05:33:15.141Z,6.00
2022-11-14T05:36:06.162Z,6.15
2022-11-14T05:38:53.692Z,6.35
2022-11-14T05:41:42.380Z,5.07
2022-11-14T05:44:29.388Z,6.05
2022-11-14T05:47:16.635Z,6.00
2022-11-14T05:50:04.065Z,5.70
2022-11-14T05:52:51.470Z,6.50
2022-11-14T05:55:38.671Z,7.28
2022-11-14T05:58:27.726Z,6.80
2022-11-14T06:01:16.482Z,7.20
2022-11-14T06:04:07.142Z,7.97
2022-11-14T06:06:54.563Z,7.10
2022-11-14T06:09:41.548Z,7.10
2022-11-14T06:12:29.042Z,6.47
2022-11-14T06:15:17.928Z,6.35
2022-11-14T06:18:05.102Z,6.28
2022-11-14T06:20:52.339Z,6.85
2022-11-14T06:23:40.027Z,7.13
2022-11-14T06:26:30.231Z,6.25
2022-11-14T06:29:17.586Z,6.78
2022-11-14T06:32:06.231Z,7.35
2022-11-14T06:34:53.513Z,6.70
2022-11-14T06:37:40.953Z,7.57
2022-11-14T06:40:28.109Z,6.22
2022-11-14T06:43:15.295Z,8.00
2022-11-14T06:46:02.856Z,6.97
2022-11-14T06:48:52.515Z,7.68
2022-11-14T06:51:39.862Z,7.93
2022-11-14T06:54:27.236Z,7.35
2022-11-14T06:57:14.577Z,7.43
2022-11-14T07:00:02.311Z,7.07
2022-11-14T07:02:49.431Z,8.02
2022-11-14T07:05:37.971Z,7.57
2022-11-14T07:08:25.256Z,8.45
2022-11-14T07:11:22.722Z,7.80
2022-11-14T07:14:10.557Z,8.15
2022-11-14T07:16:57.777Z,7.65
2022-11-14T07:19:45.012Z,8.38
2022-11-14T07:22:33.661Z,8.95
2022-11-14T07:25:22.844Z,8.23
2022-11-14T07:28:09.983Z,8.43
2022-11-14T07:30:57.272Z,9.20
2022-11-14T07:33:45.156Z,9.77
2022-11-14T07:36:32.488Z,10.10
2022-11-14T07:39:21.168Z,9.10
2022-11-14T07:42:08.434Z,10.07
2022-11-14T07:44:55.732Z,9.57
2022-11-14T07:47:43.278Z,9.45
2022-11-14T07:50:31.513Z,9.68
2022-11-14T07:53:18.705Z,9.57
2022-11-14T07:56:09.721Z,11.13
2022-11-14T07:58:56.814Z,10.45
2022-11-14T08:01:44.222Z,10.55
2022-11-14T08:04:31.491Z,11.20
2022-11-14T08:07:18.794Z,11.82
2022-11-14T08:10:06.281Z,10.55
2022-11-14T08:13:25.314Z,11.57
2022-11-14T08:16:12.935Z,13.52
2022-11-14T08:19:00.859Z,11.77
2022-11-14T08:21:48.196Z,10.65
2022-11-14T08:24:35.659Z,12.20
2022-11-14T08:27:23.156Z,12.50
2022-11-14T08:30:12.479Z,12.68
2022-11-14T08:33:02.351Z,11.88
2022-11-14T08:35:49.582Z,12.00
2022-11-14T08:38:37.283Z,13.35
2022-11-14T08:41:24.377Z,13.13
2022-11-14T08:44:11.710Z,14.23
2022-11-14T08:47:00.526Z,11.30
2022-11-14T08:49:47.572Z,13.43
2022-11-14T08:52:34.918Z,12.43
2022-11-14T08:55:22.270Z,12.63
2022-11-14T08:58:09.454Z,12.18
2022-11-14T09:01:00.348Z,12.45
2022-11-14T09:03:49.023Z,13.13
2022-11-14T09:06:36.250Z,13.27
2022-11-14T09:09:23.450Z,13.23
2022-11-14T09:12:10.793Z,13.52
2022-11-14T09:14:58.245Z,13.55
2022-11-14T09:17:45.546Z,10.45
2022-11-14T09:20:39.724Z,12.07
2022-11-14T09:23:27.917Z,12.02
2022-11-14T09:26:15.353Z,12.93
2022-11-14T09:29:02.838Z,10.73
2022-11-14T09:31:52.479Z,13.18
2022-11-14T09:34:43.021Z,10.48
2022-11-14T09:37:31.566Z,11.50
2022-11-14T09:40:18.920Z,10.85
2022-11-14T09:43:24.087Z,11.00
2022-11-14T09:48:57.907Z,10.38
2022-11-14T09:51:47.038Z,10.70
2022-11-14T09:54:40.512Z,10.43
2022-11-14T09:57:28.641Z,10.32
2022-11-14T10:00:16.901Z,12.20
2022-11-14T10:03:09.314Z,11.95
2022-11-14T10:06:03.030Z,10.20
2022-11-14T10:08:54.331Z,12.70
2022-11-14T10:11:45.460Z,11.63
2022-11-14T10:14:42.830Z,12.25
2022-11-14T10:17:41.172Z,11.63
2022-11-14T10:20:31.045Z,11.50
2022-11-14T10:23:24.348Z,11.82
2022-11-14T10:26:16.844Z,11.80
2022-11-14T10:29:12.193Z,14.15
2022-11-14T10:32:03.929Z,14.73
2022-11-14T10:34:52.614Z,14.45
2022-11-14T10:37:42.956Z,14.73
2022-11-14T10:40:32.299Z,14.02
2022-11-14T10:43:22.940Z,15.30
2022-11-14T10:46:14.356Z,13.00
2022-11-14T10:49:02.264Z,14.18
2022-11-14T10:51:52.307Z,15.23
2022-11-14T10:54:42.418Z,14.05
2022-11-14T10:57:29.703Z,14.93
2022-11-14T11:00:18.277Z,14.65
2022-11-14T11:03:07.625Z,14.55
2022-11-14T11:05:57.811Z,14.27
2022-11-14T11:09:02.571Z,13.88
2022-11-14T11:11:55.126Z,15.30
2022-11-14T11:14:42.890Z,13.75
2022-11-14T11:17:37.080Z,14.15
2022-11-14T11:20:31.698Z,14.68
2022-11-14T11:23:21.254Z,14.18
2022-11-14T11:26:09.627Z,11.77
2022-11-14T11:29:04.920Z,8.95
2022-11-14T11:31:53.273Z,12.00
2022-11-14T11:34:40.415Z,12.57
2022-11-14T11:37:30.372Z,12.45
2022-11-14T11:40:19.375Z,14.25
2022-11-14T11:43:37.889Z,13.57
2022-11-14T11:46:19.628Z,12.00
2022-11-14T11:49:08.787Z,13.05
2022-11-14T11:51:56.949Z,12.38
2022-11-14T11:54:51.857Z,11.40
2022-11-14T11:57:42.368Z,9.23
2022-11-14T12:00:29.680Z,10.70
2022-11-14T12:03:20.552Z,10.85
2022-11-14T12:06:12.672Z,10.95
2022-11-14T12:09:04.858Z,10.75
2022-11-14T12:11:55.750Z,10.95
2022-11-14T12:14:56.897Z,10.63
2022-11-14T12:17:55.909Z,11.38
2022-11-14T12:20:51.399Z,10.75
2022-11-14T12:23:53.299Z,10.90
2022-11-14T12:26:49.473Z,10.40
2022-11-14T12:29:50.151Z,11.93
2022-11-14T12:32:39.686Z,11.73
2022-11-14T12:35:28.056Z,11.48
2022-11-14T12:38:17.698Z,11.75
2022-11-14T12:41:07.721Z,11.35
2022-11-14T12:43:54.752Z,10.25
2022-11-14T12:46:56.916Z,11.65
2022-11-14T12:50:06.311Z,12.23
2022-11-14T12:52:55.316Z,12.30
2022-11-14T12:55:56.264Z,11.77
2022-11-14T12:58:49.106Z,12.15
2022-11-14T13:01:46.607Z,12.23
2022-11-14T13:04:38.155Z,12.52
2022-11-14T13:07:34.100Z,11.35
2022-11-14T13:10:27.975Z,11.38
2022-11-14T13:13:33.808Z,11.63
2022-11-14T13:16:42.123Z,11.63
2022-11-14T13:19:46.797Z,10.48
2022-11-14T13:22:38.225Z,12.73
2022-11-14T13:25:26.944Z,11.32
2022-11-14T13:28:33.048Z,12.55
2022-11-14T13:31:20.741Z,11.95
2022-11-14T13:34:22.653Z,12.32
2022-11-14T13:37:15.074Z,12.07
2022-11-14T13:40:06.323Z,12.82
2022-11-14T13:43:00.841Z,11.15
2022-11-14T13:45:53.054Z,14.10
2022-11-14T13:48:51.010Z,13.73
2022-11-14T13:51:43.959Z,13.75
2022-11-14T13:54:31.672Z,12.60
2022-11-14T13:57:24.838Z,12.98
2022-11-14T14:00:20.049Z,12.18
2022-11-14T14:03:13.564Z,12.93
2022-11-14T14:06:09.197Z,12.52
2022-11-14T14:09:00.707Z,12.23
2022-11-14T14:11:53.873Z,12.45
2022-11-14T14:14:50.452Z,11.15
2022-11-14T14:17:46.229Z,11.07
2022-11-14T14:20:37.892Z,12.00
2022-11-14T14:23:30.922Z,12.02
2022-11-14T14:26:23.153Z,11.70
2022-11-14T14:29:17.726Z,12.93
2022-11-14T14:32:07.576Z,12.00
2022-11-14T14:34:58.500Z,13.88
2022-11-14T14:37:51.289Z,12.40
2022-11-14T14:40:40.300Z,12.23
2022-11-14T14:43:32.704Z,12.45
2022-11-14T14:46:27.309Z,11.98
2022-11-14T14:52:02.410Z,11.55
2022-11-14T14:54:55.112Z,12.75
2022-11-14T14:57:42.174Z,12.02
2022-11-14T15:00:29.780Z,11.75
2022-11-14T15:03:17.387Z,13.15
2022-11-14T15:06:05.767Z,12.40
2022-11-14T15:08:54.308Z,12.25
2022-11-14T15:11:43.065Z,11.95
2022-11-14T15:14:31.228Z,12.90
2022-11-14T15:17:18.570Z,12.43
2022-11-14T15:20:06.433Z,13.57
2022-11-14T15:23:07.152Z,12.18
2022-11-14T15:26:04.111Z,13.07
2022-11-14T15:28:51.262Z,13.40
2022-11-14T15:31:38.486Z,12.60
2022-11-14T15:34:27.336Z,12.25
2022-11-14T15:37:22.459Z,12.38
2022-11-14T15:40:16.837Z,12.13
2022-11-14T15:43:18.723Z,13.15
2022-11-14T15:46:26.638Z,11.82
2022-11-14T15:49:20.405Z,12.60
2022-11-14T15:52:19.128Z,12.35
2022-11-14T15:55:10.906Z,12.55
2022-11-14T15:58:26.063Z,12.20
2022-11-14T16:01:05.126Z,13.60
2022-11-14T16:03:53.677Z,11.48
2022-11-14T16:06:41.026Z,12.68
2022-11-14T16:09:28.389Z,12.70
2022-11-14T16:12:15.910Z,12.25
2022-11-14T16:15:02.912Z,12.27
2022-11-14T16:17:50.908Z,12.27
2022-11-14T16:20:41.814Z,12.85
2022-11-14T16:23:29.336Z,13.18
2022-11-14T16:26:16.595Z,12.85
2022-11-14T16:29:04.618Z,13.10
2022-11-14T16:31:51.864Z,13.38
2022-11-14T16:34:39.239Z,12.82
2022-11-14T16:37:28.239Z,13.07
2022-11-14T16:40:16.084Z,12.63
2022-11-14T16:43:03.471Z,13.25
2022-11-14T16:45:50.752Z,13.65
2022-11-14T16:48:38.216Z,12.63
2022-11-14T16:54:34.442Z,14.35
2022-11-14T16:57:21.692Z,14.18
2022-11-14T17:00:10.638Z,13.43
2022-11-14T17:02:57.863Z,13.60
2022-11-14T17:05:45.593Z,13.90
2022-11-14T17:08:32.682Z,15.18
2022-11-14T17:11:21.391Z,15.15
2022-11-14T17:14:08.645Z,14.98
2022-11-14T17:16:55.942Z,15.70
2022-11-14T17:19:46.197Z,14.80
2022-11-14T17:22:33.621Z,14.23
2022-11-14T17:25:21.091Z,14.30
2022-11-14T17:28:09.863Z,14.13
2022-11-14T17:30:57.028Z,13.52
2022-11-14T17:33:44.675Z,13.93
2022-11-14T17:36:32.478Z,14.48
2022-11-14T17:39:19.855Z,16.25
2022-11-14T17:42:07.426Z,14.77
2022-11-14T17:44:55.736Z,15.50
2022-11-14T17:47:43.081Z,15.10
2022-11-14T17:50:34.586Z,14.35
2022-11-14T17:56:13.261Z,14.15
2022-11-14T17:59:00.156Z,14.05
2022-11-14T18:01:48.760Z,14.18
2022-11-14T18:04:36.184Z,14.38
2022-11-14T18:07:23.793Z,13.82
2022-11-14T18:10:11.100Z,13.65
2022-11-14T18:13:00.093Z,13.77
2022-11-14T18:15:48.442Z,13.10
2022-11-14T18:18:37.516Z,13.32
2022-11-14T18:21:25.570Z,13.88
2022-11-14T18:24:13.897Z,14.48
2022-11-14T18:27:00.908Z,13.85
2022-11-14T18:29:48.584Z,13.15
2022-11-14T18:32:35.931Z,13.25
2022-11-14T18:35:25.916Z,13.50
2022-11-14T18:38:13.314Z,13.73
2022-11-14T18:41:01.367Z,13.38
2022-11-14T18:43:48.298Z,13.13
2022-11-14T18:46:37.569Z,13.95
2022-11-14T18:49:25.277Z,12.63
2022-11-14T18:52:17.478Z,12.27
2022-11-14T18:55:05.511Z,12.57
2022-11-14T18:57:52.480Z,11.15
2022-11-14T19:00:40.022Z,12.20
2022-11-14T19:03:28.856Z,10.98
2022-11-14T19:06:16.358Z,10.90
2022-11-14T19:09:10.812Z,11.55
2022-11-14T19:12:16.151Z,13.23
2022-11-14T19:15:03.341Z,11.18
2022-11-14T19:17:50.607Z,11.90
2022-11-14T19:20:37.802Z,12.20
2022-11-14T19:23:24.957Z,11.70
2022-11-14T19:26:13.841Z,10.35
2022-11-14T19:29:04.012Z,11.60
2022-11-14T19:31:53.249Z,11.38
2022-11-14T19:34:40.306Z,12.55
2022-11-14T19:37:27.698Z,11.88
2022-11-14T19:40:15.438Z,13.25
2022-11-14T19:43:07.191Z,11.82
2022-11-14T19:45:56.136Z,13.05
2022-11-14T19:48:43.715Z,11.48
2022-11-14T19:51:31.389Z,13.18
2022-11-14T19:54:18.487Z,12.05
2022-11-14T19:57:06.000Z,11.32
2022-11-14T19:59:54.739Z,13.05
2022-11-14T20:02:41.873Z,12.63
2022-11-14T20:05:29.337Z,10.02
2022-11-14T20:08:16.845Z,12.38
2022-11-14T20:11:04.880Z,11.10
2022-11-14T20:13:51.922Z,11.88
2022-11-14T20:16:40.837Z,12.52
2022-11-14T20:19:28.368Z,11.75
2022-11-14T20:22:15.653Z,12.85
2022-11-14T20:25:02.996Z,11.82
2022-11-14T20:27:50.531Z,11.70
2022-11-14T20:30:41.284Z,9.82
2022-11-14T20:33:30.199Z,11.70
2022-11-14T20:36:18.394Z,11.00
2022-11-14T20:39:05.561Z,12.13
2022-11-14T20:41:54.994Z,11.38
2022-11-14T20:44:42.427Z,10.23
2022-11-14T20:47:29.936Z,11.73
2022-11-14T20:50:18.952Z,10.90
2022-11-14T20:53:06.381Z,10.43
2022-11-14T20:55:54.175Z,9.90
2022-11-14T20:58:41.581Z,10.02
2022-11-14T21:01:28.980Z,10.02
2022-11-14T21:04:16.152Z,9.85
2022-11-14T21:07:04.825Z,9.75
2022-11-14T21:10:12.112Z,9.95
2022-11-14T21:13:16.607Z,9.98
2022-11-14T21:16:04.825Z,10.50
2022-11-14T21:18:53.243Z,9.77
2022-11-14T21:21:40.372Z,10.80
2022-11-14T21:24:29.007Z,10.07
2022-11-14T21:27:16.422Z,10.48
2022-11-14T21:30:03.885Z,9.52
2022-11-14T21:32:53.970Z,10.25
2022-11-14T21:35:40.977Z,11.45
2022-11-14T21:38:28.708Z,9.73
2022-11-14T21:41:18.281Z,10.23
2022-11-14T21:44:05.795Z,11.35
2022-11-14T21:46:54.403Z,11.02
2022-11-14T21:49:41.516Z,10.60
2022-11-14T21:52:28.772Z,10.18
2022-11-14T21:55:16.115Z,10.57
2022-11-14T21:58:04.601Z,11.35
2022-11-14T22:00:51.819Z,11.38
2022-11-14T22:03:56.513Z,11.05
2022-11-14T22:06:43.933Z,10.30
2022-11-14T22:09:31.617Z,10.43
2022-11-14T22:12:18.706Z,9.90
2022-11-14T22:15:08.057Z,9.65
2022-11-14T22:17:55.393Z,11.05
2022-11-14T22:20:42.653Z,10.13
2022-11-14T22:23:30.620Z,10.95
2022-11-14T22:26:17.824Z,9.85
2022-11-14T22:29:05.008Z,10.60
2022-11-14T22:31:55.476Z,10.98
2022-11-14T22:34:42.933Z,11.20
2022-11-14T22:37:30.090Z,10.88
2022-11-14T22:40:17.493Z,10.63
2022-11-14T22:43:04.698Z,10.27
2022-11-14T22:45:52.418Z,10.40
2022-11-14T22:48:41.167Z,10.30
2022-11-14T22:51:28.715Z,9.82
2022-11-14T22:54:16.010Z,11.05
2022-11-14T22:57:03.502Z,10.60
2022-11-14T22:59:50.741Z,11.20
2022-11-14T23:02:37.935Z,10.35
2022-11-14T23:05:26.769Z,9.75
2022-11-14T23:08:15.970Z,11.30
2022-11-14T23:11:04.223Z,10.13
2022-11-14T23:13:52.225Z,10.57
2022-11-14T23:16:39.374Z,9.68
2022-11-14T23:19:26.848Z,10.82
2022-11-14T23:22:15.529Z,10.88
2022-11-14T23:25:02.657Z,10.35
2022-11-14T23:27:50.033Z,10.85
2022-11-14T23:30:37.173Z,11.82
2022-11-14T23:33:24.405Z,10.35
2022-11-14T23:36:11.700Z,9.93
2022-11-14T23:39:00.380Z,11.25
2022-11-14T23:41:47.762Z,11.02
2022-11-14T23:44:34.955Z,10.40
2022-11-14T23:47:22.222Z,10.07
2022-11-14T23:50:10.145Z,10.30
2022-11-14T23:52:57.394Z,10.65
2022-11-14T23:55:51.984Z,11.23
2022-11-14T23:58:39.276Z,11.18
